Connexion S'enregistrer

Connexion à votre compte

Identifiant
Mot de passe
Maintenir la connexion active sur ce site

Créer un compte

Pour valider ce formulaire, vous devez remplir tous les champs.
Nom
Identifiant
Mot de passe
Répétez le mot de passe
Adresse e-mail
Répétez l'adresse e-mail

 

affiche A3 V2

 

 

           La session 2018-2019 du BIA est complète

Vous pouvez vous reporter sur d'autres aéroclubs environnants (Challes les Eaux, Belley)

Pour l'Aéroclub de Savoie, nous vous disons rdv l'année prochaine!

 

 

BIA 2

 

 

 

                                                                                          

Nous contacter

 Téléphone : +33 (0)4 79 54 41 81

Coordonnées détaillées et accès : cliquez ici

 
LFLB °C
    Ferienhaus Ostsee
[source: ADDS]
METAR
LFLB 161600Z AUTO VRB02KT CAVOK 19/12 Q1017 NOSIG =
TAF LFLB 161100Z 1612/1712 VRB04KT CAVOK PROB30 TEMPO 1703/1707 2000 MIFG BECMG 1710/1712 34005KT
TAF
TAF LFLB 161100Z 1612/1712 VRB04KT CAVOK PROB30 TEMPO 1703/1707 2000 MIFG BECMG 1710/1712 34005KT =
SR / SS: 05:54 / 16:49 UTC (Lever/Coucher du soleil le 2018-10-16)
JSN Boot template designed by JoomlaShine.com